Terminal Aerodrome Forecast
Issued by NWS

Home | Current Version | Previous Version | Text Only | Print | Product List | Glossary On
Versions: 1 2 3 4 5 6 7 8 9 10 11 12 13
000
FTUS41 KBTV 260526
TAFRUT
TAF
KRUT 260526Z 2606/2706 36006KT P6SM OVC060
     FM261500 33005KT P6SM BKN035 OVC060
     FM270000 VRB03KT P6SM OVC050
      AMD LTD TO CLD VIS AND WIND=

USA.gov is the U.S. government's official web portal to all federal, state and local government web resources and services.